sensor_id;sensor_type;location;lat;lon;timestamp;pressure;altitude;pressure_sealevel;temperature;humidity
74474;BME280;62922;-6.168;106.796;2023-07-28T00:00:07;101207.97;;;30.79;57.14
74474;BME280;62922;-6.168;106.796;2023-07-28T00:02:34;101233.47;;;30.96;57.38
74474;BME280;62922;-6.168;106.796;2023-07-28T00:05:00;101228.66;;;30.88;57.21
74474;BME280;62922;-6.168;106.796;2023-07-28T00:07:27;101238.63;;;30.94;57.25
74474;BME280;62922;-6.168;106.796;2023-07-28T00:09:53;101201.19;;;30.71;57.41
74474;BME280;62922;-6.168;106.796;2023-07-28T00:12:21;101212.13;;;30.73;57.12
74474;BME280;62922;-6.168;106.796;2023-07-28T00:14:48;101241.94;;;30.96;57.32
74474;BME280;62922;-6.168;106.796;2023-07-28T00:17:17;101242.59;;;30.93;57.63
74474;BME280;62922;-6.168;106.796;2023-07-28T00:19:46;101226.63;;;30.88;57.55
74474;BME280;62922;-6.168;106.796;2023-07-28T00:22:12;101201.97;;;30.72;57.32
74474;BME280;62922;-6.168;106.796;2023-07-28T00:24:38;101232.28;;;30.88;57.37
74474;BME280;62922;-6.168;106.796;2023-07-28T00:27:05;101246.22;;;30.93;57.48
74474;BME280;62922;-6.168;106.796;2023-07-28T00:29:31;101246.03;;;30.90;57.46
74474;BME280;62922;-6.168;106.796;2023-07-28T00:31:58;101227.63;;;30.84;57.66
74474;BME280;62922;-6.168;106.796;2023-07-28T00:34:27;101246.88;;;30.90;57.24
74474;BME280;62922;-6.168;106.796;2023-07-28T00:36:53;101256.69;;;30.93;57.82
74474;BME280;62922;-6.168;106.796;2023-07-28T00:39:19;101257.97;;;30.87;57.65
74474;BME280;62922;-6.168;106.796;2023-07-28T00:41:46;101245.25;;;30.76;57.49
74474;BME280;62922;-6.168;106.796;2023-07-28T00:44:12;101262.47;;;30.88;57.01
74474;BME280;62922;-6.168;106.796;2023-07-28T00:46:40;101234.13;;;30.71;57.29
74474;BME280;62922;-6.168;106.796;2023-07-28T00:49:06;101266.44;;;30.87;57.02
74474;BME280;62922;-6.168;106.796;2023-07-28T00:51:33;101276.66;;;30.83;57.69
74474;BME280;62922;-6.168;106.796;2023-07-28T00:54:01;101275.72;;;30.87;57.83
74474;BME280;62922;-6.168;106.796;2023-07-28T00:56:32;101281.03;;;30.89;57.95
74474;BME280;62922;-6.168;106.796;2023-07-28T00:58:58;101285.59;;;31.07;58.36
74474;BME280;62922;-6.168;106.796;2023-07-28T01:01:24;101272.19;;;31.04;59.10
74474;BME280;62922;-6.168;106.796;2023-07-28T01:03:51;101281.31;;;31.09;58.70
74474;BME280;62922;-6.168;106.796;2023-07-28T01:06:30;101271.00;;;31.05;58.45
74474;BME280;62922;-6.168;106.796;2023-07-28T01:09:06;101271.81;;;30.97;59.03
74474;BME280;62922;-6.168;106.796;2023-07-28T01:11:35;101279.94;;;30.98;58.65
74474;BME280;62922;-6.168;106.796;2023-07-28T01:14:02;101275.25;;;30.94;58.88
74474;BME280;62922;-6.168;106.796;2023-07-28T01:16:28;101276.56;;;30.88;58.38
74474;BME280;62922;-6.168;106.796;2023-07-28T01:18:54;101256.03;;;30.74;58.41
74474;BME280;62922;-6.168;106.796;2023-07-28T01:21:26;101298.13;;;30.92;58.58
74474;BME280;62922;-6.168;106.796;2023-07-28T01:26:40;101252.31;;;30.64;58.27
74474;BME280;62922;-6.168;106.796;2023-07-28T01:29:07;101271.88;;;30.83;58.76
74474;BME280;62922;-6.168;106.796;2023-07-28T01:31:34;101249.25;;;30.75;58.40
74474;BME280;62922;-6.168;106.796;2023-07-28T01:34:00;101262.56;;;30.83;58.21
74474;BME280;62922;-6.168;106.796;2023-07-28T01:36:27;101245.25;;;30.76;57.73
74474;BME280;62922;-6.168;106.796;2023-07-28T01:38:53;101280.75;;;30.99;58.38
74474;BME280;62922;-6.168;106.796;2023-07-28T01:41:20;101271.09;;;30.91;57.75
74474;BME280;62922;-6.168;106.796;2023-07-28T01:43:46;101293.69;;;31.00;56.77
74474;BME280;62922;-6.168;106.796;2023-07-28T01:46:12;101275.38;;;30.89;56.48
74474;BME280;62922;-6.168;106.796;2023-07-28T01:48:39;101274.72;;;30.92;56.58
74474;BME280;62922;-6.168;106.796;2023-07-28T01:51:05;101282.06;;;30.93;56.44
74474;BME280;62922;-6.168;106.796;2023-07-28T01:53:34;101219.88;;;30.67;56.63
74474;BME280;62922;-6.168;106.796;2023-07-28T01:56:00;101269.28;;;30.95;57.02
74474;BME280;62922;-6.168;106.796;2023-07-28T01:58:27;101273.47;;;30.98;56.53
74474;BME280;62922;-6.168;106.796;2023-07-28T02:00:53;101260.13;;;30.90;56.81
74474;BME280;62922;-6.168;106.796;2023-07-28T02:03:19;101271.47;;;30.98;57.01
74474;BME280;62922;-6.168;106.796;2023-07-28T02:05:46;101238.69;;;30.80;57.04
74474;BME280;62922;-6.168;106.796;2023-07-28T02:08:12;101259.94;;;30.86;56.41
74474;BME280;62922;-6.168;106.796;2023-07-28T02:10:39;101255.41;;;30.77;56.68
74474;BME280;62922;-6.168;106.796;2023-07-28T02:13:05;101237.72;;;30.62;56.34
74474;BME280;62922;-6.168;106.796;2023-07-28T02:15:31;101248.94;;;30.76;55.70
74474;BME280;62922;-6.168;106.796;2023-07-28T02:17:58;101256.41;;;30.81;56.43
74474;BME280;62922;-6.168;106.796;2023-07-28T02:20:24;101235.16;;;30.75;56.79
74474;BME280;62922;-6.168;106.796;2023-07-28T02:22:50;101223.00;;;30.65;56.43
74474;BME280;62922;-6.168;106.796;2023-07-28T02:25:16;101224.34;;;30.68;56.79
74474;BME280;62922;-6.168;106.796;2023-07-28T02:27:43;101212.91;;;30.73;54.83
74474;BME280;62922;-6.168;106.796;2023-07-28T02:30:09;101227.31;;;30.85;54.52
74474;BME280;62922;-6.168;106.796;2023-07-28T02:32:36;101220.63;;;30.81;52.98
74474;BME280;62922;-6.168;106.796;2023-07-28T02:35:03;101215.75;;;30.73;53.42
74474;BME280;62922;-6.168;106.796;2023-07-28T02:37:29;101235.78;;;30.94;53.66
74474;BME280;62922;-6.168;106.796;2023-07-28T02:39:56;101240.19;;;31.08;53.25
74474;BME280;62922;-6.168;106.796;2023-07-28T02:42:22;101221.09;;;31.05;52.41
74474;BME280;62922;-6.168;106.796;2023-07-28T02:44:51;101219.81;;;31.11;51.31
74474;BME280;62922;-6.168;106.796;2023-07-28T02:47:18;101237.09;;;31.18;51.03
74474;BME280;62922;-6.168;106.796;2023-07-28T02:49:44;101211.53;;;31.15;51.73
74474;BME280;62922;-6.168;106.796;2023-07-28T02:52:11;101207.53;;;31.16;51.33
74474;BME280;62922;-6.168;106.796;2023-07-28T02:54:37;101222.34;;;31.21;51.79
74474;BME280;62922;-6.168;106.796;2023-07-28T02:57:06;101195.94;;;31.17;53.02
74474;BME280;62922;-6.168;106.796;2023-07-28T02:59:32;101189.31;;;31.13;52.87
74474;BME280;62922;-6.168;106.796;2023-07-28T03:01:58;101163.03;;;30.96;51.69
74474;BME280;62922;-6.168;106.796;2023-07-28T03:04:25;101203.44;;;31.22;51.30
74474;BME280;62922;-6.168;106.796;2023-07-28T03:06:51;101197.19;;;31.33;51.02
74474;BME280;62922;-6.168;106.796;2023-07-28T03:09:18;101193.00;;;31.31;50.56
74474;BME280;62922;-6.168;106.796;2023-07-28T03:11:44;101187.38;;;31.31;52.32
74474;BME280;62922;-6.168;106.796;2023-07-28T03:14:11;101189.19;;;31.27;53.96
74474;BME280;62922;-6.168;106.796;2023-07-28T03:16:39;101166.78;;;31.22;51.98
74474;BME280;62922;-6.168;106.796;2023-07-28T03:19:05;101121.59;;;30.96;51.00
74474;BME280;62922;-6.168;106.796;2023-07-28T03:21:34;101183.31;;;31.45;50.62
74474;BME280;62922;-6.168;106.796;2023-07-28T03:24:00;101161.88;;;31.36;50.38
74474;BME280;62922;-6.168;106.796;2023-07-28T03:26:29;101169.03;;;31.50;50.35
74474;BME280;62922;-6.168;106.796;2023-07-28T03:28:55;101168.88;;;31.55;51.33
74474;BME280;62922;-6.168;106.796;2023-07-28T03:31:22;101128.03;;;31.36;51.48
74474;BME280;62922;-6.168;106.796;2023-07-28T03:33:48;101173.19;;;31.53;51.78
74474;BME280;62922;-6.168;106.796;2023-07-28T03:36:14;101152.28;;;31.54;51.89
74474;BME280;62922;-6.168;106.796;2023-07-28T03:38:41;101115.41;;;31.33;51.14
74474;BME280;62922;-6.168;106.796;2023-07-28T03:41:08;101114.06;;;31.31;53.19
74474;BME280;62922;-6.168;106.796;2023-07-28T03:43:34;101141.31;;;31.44;53.47
74474;BME280;62922;-6.168;106.796;2023-07-28T03:46:00;101113.88;;;31.27;52.77
74474;BME280;62922;-6.168;106.796;2023-07-28T03:48:27;101106.56;;;31.26;53.04
74474;BME280;62922;-6.168;106.796;2023-07-28T03:50:55;101110.41;;;31.30;51.94
74474;BME280;62922;-6.168;106.796;2023-07-28T03:53:22;101132.19;;;31.47;53.26
74474;BME280;62922;-6.168;106.796;2023-07-28T03:55:48;101115.59;;;31.45;50.03
74474;BME280;62922;-6.168;106.796;2023-07-28T03:58:15;101128.41;;;31.60;49.43
74474;BME280;62922;-6.168;106.796;2023-07-28T04:00:44;101072.59;;;31.31;49.75
74474;BME280;62922;-6.168;106.796;2023-07-28T04:03:10;101071.97;;;31.43;48.57
74474;BME280;62922;-6.168;106.796;2023-07-28T04:05:37;101113.31;;;31.73;49.00
74474;BME280;62922;-6.168;106.796;2023-07-28T04:08:03;101102.03;;;31.73;49.26
74474;BME280;62922;-6.168;106.796;2023-07-28T04:10:30;101075.31;;;31.62;48.73
74474;BME280;62922;-6.168;106.796;2023-07-28T04:12:56;101108.00;;;31.80;48.83
74474;BME280;62922;-6.168;106.796;2023-07-28T04:15:22;101065.34;;;31.65;49.02
74474;BME280;62922;-6.168;106.796;2023-07-28T04:17:49;101089.41;;;31.88;49.47
74474;BME280;62922;-6.168;106.796;2023-07-28T04:20:15;101098.22;;;31.86;50.39
74474;BME280;62922;-6.168;106.796;2023-07-28T04:22:41;101095.06;;;31.96;49.01
74474;BME280;62922;-6.168;106.796;2023-07-28T04:25:08;101078.31;;;31.91;49.21
74474;BME280;62922;-6.168;106.796;2023-07-28T04:27:34;101074.50;;;31.96;48.67
74474;BME280;62922;-6.168;106.796;2023-07-28T04:30:00;101092.06;;;32.01;49.71
74474;BME280;62922;-6.168;106.796;2023-07-28T04:32:27;101068.00;;;31.95;49.23
74474;BME280;62922;-6.168;106.796;2023-07-28T04:34:53;101068.50;;;31.97;49.29
74474;BME280;62922;-6.168;106.796;2023-07-28T04:37:19;101069.16;;;32.11;48.40
74474;BME280;62922;-6.168;106.796;2023-07-28T04:39:46;101050.88;;;32.09;47.97
74474;BME280;62922;-6.168;106.796;2023-07-28T04:42:12;101030.81;;;31.93;49.73
74474;BME280;62922;-6.168;106.796;2023-07-28T04:44:38;101042.09;;;32.10;49.16
74474;BME280;62922;-6.168;106.796;2023-07-28T04:47:06;101036.44;;;32.02;50.35
74474;BME280;62922;-6.168;106.796;2023-07-28T04:49:35;101037.78;;;32.04;47.81
74474;BME280;62922;-6.168;106.796;2023-07-28T04:52:04;101034.41;;;32.19;47.63
74474;BME280;62922;-6.168;106.796;2023-07-28T04:54:34;101032.41;;;32.20;47.73
74474;BME280;62922;-6.168;106.796;2023-07-28T04:57:00;101038.03;;;32.28;47.85
74474;BME280;62922;-6.168;106.796;2023-07-28T04:59:26;101025.59;;;32.21;49.63
74474;BME280;62922;-6.168;106.796;2023-07-28T05:01:52;101025.25;;;32.22;48.60
74474;BME280;62922;-6.168;106.796;2023-07-28T05:04:19;101011.78;;;32.28;47.54
74474;BME280;62922;-6.168;106.796;2023-07-28T05:06:45;101017.25;;;32.33;46.16
74474;BME280;62922;-6.168;106.796;2023-07-28T05:09:11;100993.16;;;32.35;45.71
74474;BME280;62922;-6.168;106.796;2023-07-28T05:11:38;100961.50;;;32.21;45.59
74474;BME280;62922;-6.168;106.796;2023-07-28T05:14:04;100973.38;;;32.35;46.87
74474;BME280;62922;-6.168;106.796;2023-07-28T05:16:32;100950.66;;;32.23;46.62
74474;BME280;62922;-6.168;106.796;2023-07-28T05:19:01;100980.34;;;32.46;47.33
74474;BME280;62922;-6.168;106.796;2023-07-28T05:21:27;100960.75;;;32.33;46.93
74474;BME280;62922;-6.168;106.796;2023-07-28T05:23:54;100981.13;;;32.55;44.91
74474;BME280;62922;-6.168;106.796;2023-07-28T05:26:20;100968.00;;;32.51;45.40
74474;BME280;62922;-6.168;106.796;2023-07-28T05:28:49;100971.63;;;32.60;44.84
74474;BME280;62922;-6.168;106.796;2023-07-28T05:31:16;100973.72;;;32.72;44.88
74474;BME280;62922;-6.168;106.796;2023-07-28T05:33:45;100931.13;;;32.47;43.80
74474;BME280;62922;-6.168;106.796;2023-07-28T05:36:12;100956.28;;;32.70;44.21
74474;BME280;62922;-6.168;106.796;2023-07-28T05:38:38;100950.41;;;32.75;44.01
74474;BME280;62922;-6.168;106.796;2023-07-28T05:41:04;100937.47;;;32.74;44.28
74474;BME280;62922;-6.168;106.796;2023-07-28T05:43:31;100947.53;;;32.83;44.73
74474;BME280;62922;-6.168;106.796;2023-07-28T05:45:59;100942.56;;;32.80;44.70
74474;BME280;62922;-6.168;106.796;2023-07-28T05:48:25;100924.16;;;32.74;45.47
74474;BME280;62922;-6.168;106.796;2023-07-28T05:50:52;100936.28;;;32.75;47.24
74474;BME280;62922;-6.168;106.796;2023-07-28T05:53:21;100925.75;;;32.63;46.42
74474;BME280;62922;-6.168;106.796;2023-07-28T05:55:48;100925.47;;;32.77;46.02
74474;BME280;62922;-6.168;106.796;2023-07-28T05:58:14;100906.03;;;32.75;43.95
74474;BME280;62922;-6.168;106.796;2023-07-28T06:00:41;100881.81;;;32.66;44.80
74474;BME280;62922;-6.168;106.796;2023-07-28T06:03:10;100888.94;;;32.72;44.27
74474;BME280;62922;-6.168;106.796;2023-07-28T06:05:40;100909.25;;;32.86;44.87
74474;BME280;62922;-6.168;106.796;2023-07-28T06:08:06;100876.94;;;32.75;43.96
74474;BME280;62922;-6.168;106.796;2023-07-28T06:10:33;100848.25;;;32.64;44.69
74474;BME280;62922;-6.168;106.796;2023-07-28T06:13:02;100897.94;;;32.94;44.07
74474;BME280;62922;-6.168;106.796;2023-07-28T06:15:28;100855.16;;;32.75;43.54
74474;BME280;62922;-6.168;106.796;2023-07-28T06:17:55;100892.06;;;32.99;44.30
74474;BME280;62922;-6.168;106.796;2023-07-28T06:20:21;100864.34;;;32.93;44.27
74474;BME280;62922;-6.168;106.796;2023-07-28T06:22:47;100876.75;;;33.00;42.96
74474;BME280;62922;-6.168;106.796;2023-07-28T06:25:14;100839.31;;;32.83;42.58
74474;BME280;62922;-6.168;106.796;2023-07-28T06:27:40;100871.03;;;33.09;43.13
74474;BME280;62922;-6.168;106.796;2023-07-28T06:30:08;100821.63;;;32.86;43.72
74474;BME280;62922;-6.168;106.796;2023-07-28T06:32:35;100864.69;;;33.12;43.32
74474;BME280;62922;-6.168;106.796;2023-07-28T06:35:01;100869.63;;;33.15;43.58
74474;BME280;62922;-6.168;106.796;2023-07-28T06:37:30;100807.31;;;32.91;43.13
74474;BME280;62922;-6.168;106.796;2023-07-28T06:39:57;100849.16;;;33.18;43.80
74474;BME280;62922;-6.168;106.796;2023-07-28T06:42:23;100820.06;;;32.97;42.92
74474;BME280;62922;-6.168;106.796;2023-07-28T06:44:50;100851.38;;;33.12;42.80
74474;BME280;62922;-6.168;106.796;2023-07-28T06:47:17;100815.88;;;33.03;43.35
74474;BME280;62922;-6.168;106.796;2023-07-28T06:49:44;100846.72;;;33.28;42.70
74474;BME280;62922;-6.168;106.796;2023-07-28T06:52:10;100794.91;;;33.04;42.43
74474;BME280;62922;-6.168;106.796;2023-07-28T06:54:40;100842.13;;;33.24;43.06
74474;BME280;62922;-6.168;106.796;2023-07-28T06:57:06;100846.72;;;33.28;42.12
74474;BME280;62922;-6.168;106.796;2023-07-28T06:59:33;100835.16;;;33.33;42.77
74474;BME280;62922;-6.168;106.796;2023-07-28T07:01:59;100830.69;;;33.32;42.22
74474;BME280;62922;-6.168;106.796;2023-07-28T07:04:25;100838.97;;;33.37;42.27
74474;BME280;62922;-6.168;106.796;2023-07-28T07:06:52;100832.59;;;33.40;42.68
74474;BME280;62922;-6.168;106.796;2023-07-28T07:09:18;100824.09;;;33.40;42.68
74474;BME280;62922;-6.168;106.796;2023-07-28T07:11:45;100779.13;;;33.15;43.00
74474;BME280;62922;-6.168;106.796;2023-07-28T07:14:12;100808.78;;;33.29;42.50
74474;BME280;62922;-6.168;106.796;2023-07-28T07:16:40;100780.81;;;33.16;42.96
74474;BME280;62922;-6.168;106.796;2023-07-28T07:19:08;100817.44;;;33.45;42.21
74474;BME280;62922;-6.168;106.796;2023-07-28T07:21:35;100812.94;;;33.44;42.68
74474;BME280;62922;-6.168;106.796;2023-07-28T07:24:03;100810.13;;;33.44;43.07
74474;BME280;62922;-6.168;106.796;2023-07-28T07:26:29;100807.47;;;33.39;42.88
74474;BME280;62922;-6.168;106.796;2023-07-28T07:28:57;100799.97;;;33.43;43.22
74474;BME280;62922;-6.168;106.796;2023-07-28T07:31:26;100792.19;;;33.40;42.75
74474;BME280;62922;-6.168;106.796;2023-07-28T07:33:52;100797.47;;;33.41;43.17
74474;BME280;62922;-6.168;106.796;2023-07-28T07:36:19;100803.38;;;33.36;45.27
74474;BME280;62922;-6.168;106.796;2023-07-28T07:38:46;100800.97;;;33.26;44.41
74474;BME280;62922;-6.168;106.796;2023-07-28T07:41:13;100787.09;;;33.33;43.40
74474;BME280;62922;-6.168;106.796;2023-07-28T07:43:45;100795.97;;;33.44;43.78
74474;BME280;62922;-6.168;106.796;2023-07-28T07:46:13;100749.00;;;33.19;43.97
74474;BME280;62922;-6.168;106.796;2023-07-28T07:48:39;100788.63;;;33.43;44.66
74474;BME280;62922;-6.168;106.796;2023-07-28T07:51:07;100763.84;;;33.28;44.09
74474;BME280;62922;-6.168;106.796;2023-07-28T07:53:33;100786.16;;;33.29;45.77
74474;BME280;62922;-6.168;106.796;2023-07-28T07:56:04;100789.06;;;33.21;46.20
74474;BME280;62922;-6.168;106.796;2023-07-28T07:58:30;100790.50;;;33.27;47.07
74474;BME280;62922;-6.168;106.796;2023-07-28T08:00:57;100770.63;;;33.03;46.57
74474;BME280;62922;-6.168;106.796;2023-07-28T08:03:23;100790.00;;;33.13;46.50
74474;BME280;62922;-6.168;106.796;2023-07-28T08:05:52;100809.91;;;33.16;46.08
74474;BME280;62922;-6.168;106.796;2023-07-28T08:08:19;100803.78;;;33.14;46.95
74474;BME280;62922;-6.168;106.796;2023-07-28T08:10:47;100793.13;;;32.99;47.06
74474;BME280;62922;-6.168;106.796;2023-07-28T08:13:16;100789.53;;;33.11;45.96
74474;BME280;62922;-6.168;106.796;2023-07-28T08:15:44;100789.78;;;33.18;46.42
74474;BME280;62922;-6.168;106.796;2023-07-28T08:18:16;100803.53;;;33.07;47.03
74474;BME280;62922;-6.168;106.796;2023-07-28T08:20:42;100783.03;;;33.10;46.47
74474;BME280;62922;-6.168;106.796;2023-07-28T08:23:08;100789.16;;;33.12;46.46
74474;BME280;62922;-6.168;106.796;2023-07-28T08:25:35;100745.31;;;32.86;47.15
74474;BME280;62922;-6.168;106.796;2023-07-28T08:28:02;100774.66;;;33.02;46.59
74474;BME280;62922;-6.168;106.796;2023-07-28T08:30:28;100781.47;;;33.01;46.91
74474;BME280;62922;-6.168;106.796;2023-07-28T08:32:58;100787.19;;;32.92;46.66
74474;BME280;62922;-6.168;106.796;2023-07-28T08:35:24;100793.47;;;32.98;47.12
74474;BME280;62922;-6.168;106.796;2023-07-28T08:37:53;100791.47;;;32.98;46.77
74474;BME280;62922;-6.168;106.796;2023-07-28T08:40:19;100780.19;;;32.98;46.36
74474;BME280;62922;-6.168;106.796;2023-07-28T08:42:46;100808.91;;;33.00;46.42
74474;BME280;62922;-6.168;106.796;2023-07-28T08:45:12;100801.31;;;32.92;47.38
74474;BME280;62922;-6.168;106.796;2023-07-28T08:47:42;100805.66;;;32.90;47.82
74474;BME280;62922;-6.168;106.796;2023-07-28T08:50:08;100804.66;;;32.94;46.84
74474;BME280;62922;-6.168;106.796;2023-07-28T08:52:35;100742.13;;;32.54;47.06
74474;BME280;62922;-6.168;106.796;2023-07-28T08:55:01;100776.59;;;32.69;47.69
74474;BME280;62922;-6.168;106.796;2023-07-28T08:57:28;100803.66;;;32.90;47.66
74474;BME280;62922;-6.168;106.796;2023-07-28T08:59:55;100727.63;;;32.44;47.67
74474;BME280;62922;-6.168;106.796;2023-07-28T09:02:24;100803.66;;;32.90;47.15
74474;BME280;62922;-6.168;106.796;2023-07-28T09:04:51;100781.59;;;32.84;47.17
74474;BME280;62922;-6.168;106.796;2023-07-28T09:07:17;100791.75;;;32.85;47.87
74474;BME280;62922;-6.168;106.796;2023-07-28T09:09:46;100804.97;;;32.93;48.29
74474;BME280;62922;-6.168;106.796;2023-07-28T09:12:12;100797.66;;;32.92;47.52
74474;BME280;62922;-6.168;106.796;2023-07-28T09:14:39;100805.47;;;32.95;48.34
74474;BME280;62922;-6.168;106.796;2023-07-28T09:17:08;100815.13;;;32.94;48.29
74474;BME280;62922;-6.168;106.796;2023-07-28T09:19:59;100827.59;;;32.93;48.94
74474;BME280;62922;-6.168;106.796;2023-07-28T09:22:24;100759.78;;;32.51;48.75
74474;BME280;62922;-6.168;106.796;2023-07-28T09:24:51;100806.28;;;32.75;49.17
74474;BME280;62922;-6.168;106.796;2023-07-28T09:27:22;100812.69;;;32.84;50.34
74474;BME280;62922;-6.168;106.796;2023-07-28T09:29:54;100787.28;;;32.63;50.99
74474;BME280;62922;-6.168;106.796;2023-07-28T09:32:32;100823.19;;;32.83;50.81
74474;BME280;62922;-6.168;106.796;2023-07-28T09:35:19;100824.47;;;32.86;50.54
74474;BME280;62922;-6.168;106.796;2023-07-28T09:37:48;100820.28;;;32.71;50.67
74474;BME280;62922;-6.168;106.796;2023-07-28T09:40:18;100792.50;;;32.52;51.51
74474;BME280;62922;-6.168;106.796;2023-07-28T09:42:46;100837.94;;;32.68;51.23
74474;BME280;62922;-6.168;106.796;2023-07-28T09:45:17;100771.19;;;32.34;50.88
74474;BME280;62922;-6.168;106.796;2023-07-28T09:47:45;100800.38;;;32.47;50.60
74474;BME280;62922;-6.168;106.796;2023-07-28T09:50:15;100836.75;;;32.69;50.56
74474;BME280;62922;-6.168;106.796;2023-07-28T09:52:43;100836.59;;;32.66;50.75
74474;BME280;62922;-6.168;106.796;2023-07-28T09:55:12;100792.59;;;32.44;51.23
74474;BME280;62922;-6.168;106.796;2023-07-28T09:57:45;100821.84;;;32.60;51.21
74474;BME280;62922;-6.168;106.796;2023-07-28T10:00:13;100823.66;;;32.65;50.97
74474;BME280;62922;-6.168;106.796;2023-07-28T10:02:41;100794.09;;;32.41;51.24
74474;BME280;62922;-6.168;106.796;2023-07-28T10:05:08;100829.66;;;32.63;51.30
74474;BME280;62922;-6.168;106.796;2023-07-28T10:07:38;100802.06;;;32.39;51.17
74474;BME280;62922;-6.168;106.796;2023-07-28T10:10:07;100842.75;;;32.68;51.03
74474;BME280;62922;-6.168;106.796;2023-07-28T10:12:48;100819.31;;;32.46;51.36
74474;BME280;62922;-6.168;106.796;2023-07-28T10:15:17;100857.56;;;32.65;51.10
74474;BME280;62922;-6.168;106.796;2023-07-28T10:18:12;100850.88;;;32.69;51.24
74474;BME280;62922;-6.168;106.796;2023-07-28T10:20:35;100857.00;;;32.71;50.48
74474;BME280;62922;-6.168;106.796;2023-07-28T10:23:05;100859.03;;;32.71;51.60
74474;BME280;62922;-6.168;106.796;2023-07-28T10:25:36;100817.34;;;32.38;51.80
74474;BME280;62922;-6.168;106.796;2023-07-28T10:28:05;100863.00;;;32.70;51.69
74474;BME280;62922;-6.168;106.796;2023-07-28T10:30:36;100871.00;;;32.68;51.65
74474;BME280;62922;-6.168;106.796;2023-07-28T10:33:03;100877.00;;;32.66;52.23
74474;BME280;62922;-6.168;106.796;2023-07-28T10:35:30;100884.16;;;32.64;51.97
74474;BME280;62922;-6.168;106.796;2023-07-28T10:37:58;100847.94;;;32.36;50.07
74474;BME280;62922;-6.168;106.796;2023-07-28T10:40:35;100903.63;;;32.65;50.71
74474;BME280;62922;-6.168;106.796;2023-07-28T10:43:03;100870.53;;;32.45;51.55
74474;BME280;62922;-6.168;106.796;2023-07-28T10:45:32;100908.16;;;32.58;52.17
74474;BME280;62922;-6.168;106.796;2023-07-28T10:47:59;100913.13;;;32.61;51.79
74474;BME280;62922;-6.168;106.796;2023-07-28T10:50:29;100873.69;;;32.35;52.36
74474;BME280;62922;-6.168;106.796;2023-07-28T10:52:58;100919.47;;;32.58;51.61
74474;BME280;62922;-6.168;106.796;2023-07-28T10:55:26;100916.16;;;32.55;51.69
74474;BME280;62922;-6.168;106.796;2023-07-28T10:57:54;100919.53;;;32.70;52.46
74474;BME280;62922;-6.168;106.796;2023-07-28T11:00:22;100928.28;;;32.77;52.80
74474;BME280;62922;-6.168;106.796;2023-07-28T11:02:51;100898.22;;;32.51;52.46
74474;BME280;62922;-6.168;106.796;2023-07-28T11:05:25;100934.00;;;32.68;52.70
74474;BME280;62922;-6.168;106.796;2023-07-28T11:07:55;100893.44;;;32.43;51.98
74474;BME280;62922;-6.168;106.796;2023-07-28T11:10:21;100902.09;;;32.38;51.76
74474;BME280;62922;-6.168;106.796;2023-07-28T11:12:51;100927.97;;;32.49;51.71
74474;BME280;62922;-6.168;106.796;2023-07-28T11:15:19;100903.97;;;32.26;51.43
74474;BME280;62922;-6.168;106.796;2023-07-28T11:17:49;100950.91;;;32.47;51.14
74474;BME280;62922;-6.168;106.796;2023-07-28T11:22:45;100969.72;;;32.43;50.83
74474;BME280;62922;-6.168;106.796;2023-07-28T11:25:14;100969.53;;;32.40;51.53
74474;BME280;62922;-6.168;106.796;2023-07-28T11:27:40;100926.78;;;32.12;50.73
74474;BME280;62922;-6.168;106.796;2023-07-28T11:30:07;100985.66;;;32.39;51.21
74474;BME280;62922;-6.168;106.796;2023-07-28T11:32:38;100992.66;;;32.42;50.27
74474;BME280;62922;-6.168;106.796;2023-07-28T11:35:06;100994.44;;;32.38;50.69
74474;BME280;62922;-6.168;106.796;2023-07-28T11:37:35;101002.28;;;32.41;50.95
74474;BME280;62922;-6.168;106.796;2023-07-28T11:40:03;100998.81;;;32.35;50.49
74474;BME280;62922;-6.168;106.796;2023-07-28T11:42:34;101010.44;;;32.34;50.53
74474;BME280;62922;-6.168;106.796;2023-07-28T11:45:04;101016.91;;;32.34;50.48
74474;BME280;62922;-6.168;106.796;2023-07-28T11:47:31;100952.09;;;32.00;50.70
74474;BME280;62922;-6.168;106.796;2023-07-28T11:49:58;101019.22;;;32.32;50.44
74474;BME280;62922;-6.168;106.796;2023-07-28T11:52:35;101025.22;;;32.31;49.64
74474;BME280;62922;-6.168;106.796;2023-07-28T11:55:05;101028.88;;;32.31;50.28
74474;BME280;62922;-6.168;106.796;2023-07-28T11:57:32;101041.69;;;32.29;50.38
74474;BME280;62922;-6.168;106.796;2023-07-28T12:00:00;101038.34;;;32.27;50.67
74474;BME280;62922;-6.168;106.796;2023-07-28T12:02:27;101040.38;;;32.26;50.46
74474;BME280;62922;-6.168;106.796;2023-07-28T12:04:56;101050.00;;;32.25;50.20
74474;BME280;62922;-6.168;106.796;2023-07-28T12:07:31;101061.47;;;32.20;49.86
74474;BME280;62922;-6.168;106.796;2023-07-28T12:10:03;101053.84;;;32.21;50.73
74474;BME280;62922;-6.168;106.796;2023-07-28T12:12:41;101045.72;;;32.19;50.85
74474;BME280;62922;-6.168;106.796;2023-07-28T12:18:09;101052.34;;;32.15;50.98
74474;BME280;62922;-6.168;106.796;2023-07-28T12:20:36;101069.94;;;32.20;50.35
74474;BME280;62922;-6.168;106.796;2023-07-28T12:23:03;101057.16;;;32.14;50.68
74474;BME280;62922;-6.168;106.796;2023-07-28T12:25:30;101068.97;;;32.16;50.38
74474;BME280;62922;-6.168;106.796;2023-07-28T12:27:56;101057.53;;;32.04;50.59
74474;BME280;62922;-6.168;106.796;2023-07-28T12:30:23;101073.59;;;32.12;51.30
74474;BME280;62922;-6.168;106.796;2023-07-28T12:32:49;101080.44;;;32.11;50.37
74474;BME280;62922;-6.168;106.796;2023-07-28T12:35:15;101083.25;;;32.11;51.06
74474;BME280;62922;-6.168;106.796;2023-07-28T12:37:42;101056.91;;;31.90;51.04
74474;BME280;62922;-6.168;106.796;2023-07-28T12:40:08;101082.94;;;32.04;50.65